Forside
METAR-TAF:

METAR-TAF

Lufthavne :

Wrocław Kopernikus Lufthavnen

Wrocław, Polen

Breddekreds: 51-06N, længdekreds: 016-53E, højde: 120 m

Aktuelle vejr

Denne rapport blev lavet for 31 minutter siden, kl. 08:30 UTC
Vind 9 kt fra sydøst
Temperatur 22°C
Fugtighed 65%
Tryk 1020 hPa
Sigt 10 km eller mere
ingen skyer under 1500m og ingen cumulonimbus

METAR: EPWR 260830Z 13009KT CAVOK 22/15 Q1020

Tid: 11:01 (09:01 UTC)

Vejrudsigter

Denne rapport blev lavet for 31 minutter siden, kl. 08:30 UTC
Foreløbig gælder fra 26 på 09 UTC til 27 på 09 UTC
Vind 5 kt fra sydsydøst
Sigt 10 km eller mere
ingen skyer under 1500m og ingen cumulonimbus
Midlertidig
fra 26 på 11 UTC til 26 på 19 UTC
Vind 17 kt fra varierende retninger med vindstød på up til 30 kt
Sigt: 2500 m
Brudte skyer i en højde af 4500 ft, Cumulonimbus.
tordenbyger, regn,

TAF: EPWR 260830Z 2609/2709 16005KT CAVOK TEMPO 2611/2619 VRB17G30KT 2500 TSRA BKN045CB

Vejrobservationer og prognoser fra mere end 4000 lufthavne (METAR og TAF).

De gule og røde prikker repræsenterer de meteorologiske stationer.

Flyt musen over at se navnet på stationen.

Så klik over at se vejr observationer og prognoser.

At skifte det kort: Klik på de grønne knapper med et sort kors for at zoome ind; på den grønne knap med en bindestreg for at zoome ud; eller på de grønne pile for tilstødende kort.


METAR-TAF: